sensor_id;sensor_type;location;lat;lon;timestamp;pressure;altitude;pressure_sealevel;temperature;humidity
77979;BME280;67169;50.268;8.694;2023-04-03T00:02:23;100745.09;;;3.27;69.90
77979;BME280;67169;50.268;8.694;2023-04-03T00:04:49;100734.47;;;3.29;70.55
77979;BME280;67169;50.268;8.694;2023-04-03T00:07:16;100741.56;;;3.31;69.24
77979;BME280;67169;50.268;8.694;2023-04-03T00:09:43;100737.16;;;3.32;69.06
77979;BME280;67169;50.268;8.694;2023-04-03T00:12:09;100744.25;;;3.36;69.64
77979;BME280;67169;50.268;8.694;2023-04-03T00:14:36;100744.25;;;3.36;70.12
77979;BME280;67169;50.268;8.694;2023-04-03T00:17:04;100729.16;;;3.30;70.44
77979;BME280;67169;50.268;8.694;2023-04-03T00:19:30;100733.63;;;3.36;70.04
77979;BME280;67169;50.268;8.694;2023-04-03T00:21:57;100748.75;;;3.42;69.37
77979;BME280;67169;50.268;8.694;2023-04-03T00:24:24;100730.09;;;3.34;69.02
77979;BME280;67169;50.268;8.694;2023-04-03T00:26:51;100744.31;;;3.42;70.26
77979;BME280;67169;50.268;8.694;2023-04-03T00:29:17;100749.63;;;3.44;69.44
77979;BME280;67169;50.268;8.694;2023-04-03T00:31:44;100749.66;;;3.47;69.54
77979;BME280;67169;50.268;8.694;2023-04-03T00:34:12;100746.13;;;3.49;70.03
77979;BME280;67169;50.268;8.694;2023-04-03T00:36:39;100746.06;;;3.40;70.55
77979;BME280;67169;50.268;8.694;2023-04-03T00:39:05;100746.97;;;3.47;69.89
77979;BME280;67169;50.268;8.694;2023-04-03T00:41:32;100748.75;;;3.42;69.78
77979;BME280;67169;50.268;8.694;2023-04-03T00:43:58;100750.50;;;3.41;70.95
77979;BME280;67169;50.268;8.694;2023-04-03T00:46:25;100759.41;;;3.45;70.72
77979;BME280;67169;50.268;8.694;2023-04-03T00:48:52;100750.50;;;3.41;70.95
77979;BME280;67169;50.268;8.694;2023-04-03T00:51:23;100748.72;;;3.39;71.83
77979;BME280;67169;50.268;8.694;2023-04-03T00:53:53;100751.41;;;3.43;71.49
77979;BME280;67169;50.268;8.694;2023-04-03T00:56:24;100740.72;;;3.40;71.52
77979;BME280;67169;50.268;8.694;2023-04-03T00:58:53;100745.19;;;3.43;71.38
77979;BME280;67169;50.268;8.694;2023-04-03T01:01:23;100752.34;;;3.48;71.69
77979;BME280;67169;50.268;8.694;2023-04-03T01:03:49;100753.16;;;3.43;72.48
77979;BME280;67169;50.268;8.694;2023-04-03T01:06:21;100731.72;;;3.20;72.35
77979;BME280;67169;50.268;8.694;2023-04-03T01:08:49;100752.25;;;3.38;73.13
77979;BME280;67169;50.268;8.694;2023-04-03T01:11:16;100751.38;;;3.39;73.02
77979;BME280;67169;50.268;8.694;2023-04-03T01:13:43;100751.34;;;3.36;72.53
77979;BME280;67169;50.268;8.694;2023-04-03T01:16:10;100754.03;;;3.39;73.05
77979;BME280;67169;50.268;8.694;2023-04-03T01:18:39;100745.13;;;3.33;72.29
77979;BME280;67169;50.268;8.694;2023-04-03T01:21:26;100756.69;;;3.39;73.62
77979;BME280;67169;50.268;8.694;2023-04-03T01:24:07;100758.47;;;3.38;74.67
77979;BME280;67169;50.268;8.694;2023-04-03T01:26:38;100751.34;;;3.36;73.78
77979;BME280;67169;50.268;8.694;2023-04-03T01:29:05;100746.91;;;3.36;73.80
77979;BME280;67169;50.268;8.694;2023-04-03T01:31:45;100749.56;;;3.36;74.24
77979;BME280;67169;50.268;8.694;2023-04-03T01:34:12;100754.88;;;3.31;73.56
77979;BME280;67169;50.268;8.694;2023-04-03T01:36:39;100762.81;;;3.28;74.58
77979;BME280;67169;50.268;8.694;2023-04-03T01:39:06;100757.47;;;3.25;75.74
77979;BME280;67169;50.268;8.694;2023-04-03T01:41:33;100762.75;;;3.22;75.84
77979;BME280;67169;50.268;8.694;2023-04-03T01:44:00;100748.50;;;3.11;75.79
77979;BME280;67169;50.268;8.694;2023-04-03T01:46:27;100753.00;;;3.18;76.01
77979;BME280;67169;50.268;8.694;2023-04-03T01:48:55;100752.06;;;3.16;76.14
77979;BME280;67169;50.268;8.694;2023-04-03T01:51:21;100758.31;;;3.17;76.08
77979;BME280;67169;50.268;8.694;2023-04-03T01:53:48;100757.41;;;3.16;76.22
77979;BME280;67169;50.268;8.694;2023-04-03T01:56:15;100776.88;;;3.14;76.44
77979;BME280;67169;50.268;8.694;2023-04-03T01:58:41;100764.44;;;3.08;76.11
77979;BME280;67169;50.268;8.694;2023-04-03T02:01:08;100760.84;;;3.06;76.59
77979;BME280;67169;50.268;8.694;2023-04-03T02:03:34;100767.09;;;3.09;76.57
77979;BME280;67169;50.268;8.694;2023-04-03T02:06:03;100765.25;;;3.02;76.21
77979;BME280;67169;50.268;8.694;2023-04-03T02:08:29;100766.19;;;3.09;76.17
77979;BME280;67169;50.268;8.694;2023-04-03T02:10:56;100774.13;;;3.06;76.85
77979;BME280;67169;50.268;8.694;2023-04-03T02:13:23;100771.50;;;3.04;76.08
77979;BME280;67169;50.268;8.694;2023-04-03T02:15:49;100776.81;;;3.09;76.44
77979;BME280;67169;50.268;8.694;2023-04-03T02:18:16;100767.09;;;3.06;76.79
77979;BME280;67169;50.268;8.694;2023-04-03T02:20:43;100774.19;;;3.11;76.89
77979;BME280;67169;50.268;8.694;2023-04-03T02:23:11;100717.22;;;2.76;76.68
77979;BME280;67169;50.268;8.694;2023-04-03T02:25:38;100775.06;;;3.08;76.74
77979;BME280;67169;50.268;8.694;2023-04-03T02:28:05;100775.03;;;3.05;77.28
77979;BME280;67169;50.268;8.694;2023-04-03T02:30:32;100782.09;;;3.00;77.73
77979;BME280;67169;50.268;8.694;2023-04-03T02:32:58;100778.50;;;2.98;76.65
77979;BME280;67169;50.268;8.694;2023-04-03T02:35:25;100769.63;;;2.96;73.87
77979;BME280;67169;50.268;8.694;2023-04-03T02:37:52;100771.44;;;2.97;72.21
77979;BME280;67169;50.268;8.694;2023-04-03T02:40:20;100770.50;;;2.93;72.95
77979;BME280;67169;50.268;8.694;2023-04-03T02:42:46;100779.31;;;2.88;73.05
77979;BME280;67169;50.268;8.694;2023-04-03T02:45:13;100772.16;;;2.80;70.62
77979;BME280;67169;50.268;8.694;2023-04-03T02:47:40;100781.97;;;2.88;71.22
77979;BME280;67169;50.268;8.694;2023-04-03T02:50:07;100788.16;;;2.87;70.91
77979;BME280;67169;50.268;8.694;2023-04-03T02:52:34;100777.50;;;2.83;71.35
77979;BME280;67169;50.268;8.694;2023-04-03T02:55:00;100783.69;;;2.82;71.03
77979;BME280;67169;50.268;8.694;2023-04-03T02:57:29;100781.84;;;2.75;71.65
77979;BME280;67169;50.268;8.694;2023-04-03T02:59:55;100780.91;;;2.70;71.44
77979;BME280;67169;50.268;8.694;2023-04-03T03:02:22;100781.75;;;2.68;72.49
77979;BME280;67169;50.268;8.694;2023-04-03T03:04:48;100786.16;;;2.64;73.97
77979;BME280;67169;50.268;8.694;2023-04-03T03:07:15;100779.94;;;2.62;73.76
77979;BME280;67169;50.268;8.694;2023-04-03T03:09:41;100787.00;;;2.60;73.02
77979;BME280;67169;50.268;8.694;2023-04-03T03:12:08;100782.53;;;2.56;73.48
77979;BME280;67169;50.268;8.694;2023-04-03T03:14:36;100779.84;;;2.53;74.67
77979;BME280;67169;50.268;8.694;2023-04-03T03:17:03;100781.53;;;2.46;74.52
77979;BME280;67169;50.268;8.694;2023-04-03T03:19:29;100783.25;;;2.43;74.04
77979;BME280;67169;50.268;8.694;2023-04-03T03:21:56;100783.22;;;2.38;74.17
77979;BME280;67169;50.268;8.694;2023-04-03T03:24:23;100791.03;;;2.26;73.48
77979;BME280;67169;50.268;8.694;2023-04-03T03:26:50;100786.59;;;2.26;73.31
77979;BME280;67169;50.268;8.694;2023-04-03T03:29:16;100786.53;;;2.20;73.40
77979;BME280;67169;50.268;8.694;2023-04-03T03:31:44;100783.81;;;2.14;72.84
77979;BME280;67169;50.268;8.694;2023-04-03T03:34:11;100789.91;;;2.07;72.84
77979;BME280;67169;50.268;8.694;2023-04-03T03:36:38;100785.47;;;2.06;73.34
77979;BME280;67169;50.268;8.694;2023-04-03T03:39:05;100787.16;;;1.99;73.66
77979;BME280;67169;50.268;8.694;2023-04-03T03:41:31;100770.94;;;1.76;73.70
77979;BME280;67169;50.268;8.694;2023-04-03T03:43:58;100790.50;;;1.84;73.70
77979;BME280;67169;50.268;8.694;2023-04-03T03:46:24;100786.91;;;1.79;74.00
77979;BME280;67169;50.268;8.694;2023-04-03T03:48:52;100794.72;;;1.70;74.91
77979;BME280;67169;50.268;8.694;2023-04-03T03:51:19;100799.88;;;1.61;75.43
77979;BME280;67169;50.268;8.694;2023-04-03T03:53:45;100799.75;;;1.52;75.84
77979;BME280;67169;50.268;8.694;2023-04-03T03:56:12;100803.25;;;1.51;76.34
77979;BME280;67169;50.268;8.694;2023-04-03T03:58:38;100801.44;;;1.47;76.40
77979;BME280;67169;50.268;8.694;2023-04-03T04:01:06;100801.28;;;1.37;76.09
77979;BME280;67169;50.268;8.694;2023-04-03T04:03:33;100809.16;;;1.33;76.33
77979;BME280;67169;50.268;8.694;2023-04-03T04:06:01;100807.34;;;1.30;76.14
77979;BME280;67169;50.268;8.694;2023-04-03T04:08:28;100809.09;;;1.28;76.68
77979;BME280;67169;50.268;8.694;2023-04-03T04:10:55;100810.91;;;1.31;77.50
77979;BME280;67169;50.268;8.694;2023-04-03T04:13:21;100803.81;;;1.30;77.55
77979;BME280;67169;50.268;8.694;2023-04-03T04:15:48;100813.31;;;1.17;77.37
77979;BME280;67169;50.268;8.694;2023-04-03T04:18:14;100811.56;;;1.17;77.93
77979;BME280;67169;50.268;8.694;2023-04-03T04:20:41;100805.28;;;1.12;78.00
77979;BME280;67169;50.268;8.694;2023-04-03T04:23:09;100806.09;;;1.07;77.81
77979;BME280;67169;50.268;8.694;2023-04-03T04:25:36;100806.81;;;0.98;78.40
77979;BME280;67169;50.268;8.694;2023-04-03T04:28:02;100812.09;;;0.97;78.26
77979;BME280;67169;50.268;8.694;2023-04-03T04:30:29;100808.41;;;0.87;77.95
77979;BME280;67169;50.268;8.694;2023-04-03T04:32:56;100812.84;;;0.89;78.46
77979;BME280;67169;50.268;8.694;2023-04-03T04:35:22;100814.47;;;0.81;79.04
77979;BME280;67169;50.268;8.694;2023-04-03T04:37:49;100813.31;;;0.67;78.63
77979;BME280;67169;50.268;8.694;2023-04-03T04:40:17;100765.06;;;0.35;78.31
77979;BME280;67169;50.268;8.694;2023-04-03T04:42:44;100821.00;;;0.55;78.67
77979;BME280;67169;50.268;8.694;2023-04-03T04:45:11;100816.53;;;0.51;78.67
77979;BME280;67169;50.268;8.694;2023-04-03T04:47:37;100807.56;;;0.44;79.01
77979;BME280;67169;50.268;8.694;2023-04-03T04:50:05;100811.91;;;0.39;79.24
77979;BME280;67169;50.268;8.694;2023-04-03T04:52:32;100799.28;;;0.27;78.87
77979;BME280;67169;50.268;8.694;2023-04-03T04:54:58;100816.19;;;0.34;78.86
77979;BME280;67169;50.268;8.694;2023-04-03T04:57:26;100819.72;;;0.34;78.62
77979;BME280;67169;50.268;8.694;2023-04-03T04:59:53;100828.47;;;0.30;78.68
77979;BME280;67169;50.268;8.694;2023-04-03T05:02:19;100825.75;;;0.27;79.21
77979;BME280;67169;50.268;8.694;2023-04-03T05:04:46;100812.31;;;0.16;79.40
77979;BME280;67169;50.268;8.694;2023-04-03T05:07:15;100823.78;;;0.17;79.54
77979;BME280;67169;50.268;8.694;2023-04-03T05:09:42;100829.84;;;0.11;79.64
77979;BME280;67169;50.268;8.694;2023-04-03T05:12:08;100828.97;;;0.11;79.14
77979;BME280;67169;50.268;8.694;2023-04-03T05:14:36;100829.84;;;0.11;79.17
77979;BME280;67169;50.268;8.694;2023-04-03T05:17:03;100839.66;;;0.17;79.44
77979;BME280;67169;50.268;8.694;2023-04-03T05:19:29;100840.50;;;0.16;79.06
77979;BME280;67169;50.268;8.694;2023-04-03T05:21:56;100842.34;;;0.20;79.12
77979;BME280;67169;50.268;8.694;2023-04-03T05:24:22;100845.06;;;0.23;78.81
77979;BME280;67169;50.268;8.694;2023-04-03T05:26:49;100856.69;;;0.30;78.54
77979;BME280;67169;50.268;8.694;2023-04-03T05:29:16;100855.78;;;0.29;78.43
77979;BME280;67169;50.268;8.694;2023-04-03T05:31:44;100852.28;;;0.30;78.27
77979;BME280;67169;50.268;8.694;2023-04-03T05:34:11;100854.97;;;0.32;78.80
77979;BME280;67169;50.268;8.694;2023-04-03T05:36:37;100856.75;;;0.34;78.22
77979;BME280;67169;50.268;8.694;2023-04-03T05:39:04;100860.41;;;0.39;78.14
77979;BME280;67169;50.268;8.694;2023-04-03T05:41:31;100863.13;;;0.42;78.00
77979;BME280;67169;50.268;8.694;2023-04-03T05:43:58;100834.75;;;0.35;78.06
77979;BME280;67169;50.268;8.694;2023-04-03T05:46:24;100861.59;;;0.54;77.65
77979;BME280;67169;50.268;8.694;2023-04-03T05:48:53;100873.19;;;0.59;77.25
77979;BME280;67169;50.268;8.694;2023-04-03T05:51:22;100868.03;;;0.66;77.40
77979;BME280;67169;50.268;8.694;2023-04-03T05:53:52;100863.88;;;0.79;77.25
77979;BME280;67169;50.268;8.694;2023-04-03T05:56:22;100860.16;;;0.71;77.09
77979;BME280;67169;50.268;8.694;2023-04-03T05:58:48;100870.16;;;0.86;76.73
77979;BME280;67169;50.268;8.694;2023-04-03T06:01:15;100864.00;;;0.87;76.57
77979;BME280;67169;50.268;8.694;2023-04-03T06:03:42;100872.91;;;0.90;76.62
77979;BME280;67169;50.268;8.694;2023-04-03T06:06:12;100870.19;;;0.87;76.05
77979;BME280;67169;50.268;8.694;2023-04-03T06:08:39;100875.50;;;0.89;76.35
77979;BME280;67169;50.268;8.694;2023-04-03T06:11:06;100885.41;;;0.98;75.85
77979;BME280;67169;50.268;8.694;2023-04-03T06:13:33;100884.63;;;1.05;75.26
77979;BME280;67169;50.268;8.694;2023-04-03T06:16:00;100890.75;;;1.01;75.17
77979;BME280;67169;50.268;8.694;2023-04-03T06:18:27;100892.72;;;1.11;75.28
77979;BME280;67169;50.268;8.694;2023-04-03T06:20:54;100868.69;;;1.02;75.62
77979;BME280;67169;50.268;8.694;2023-04-03T06:23:22;100892.78;;;1.17;75.25
77979;BME280;67169;50.268;8.694;2023-04-03T06:25:49;100900.16;;;1.32;75.20
77979;BME280;67169;50.268;8.694;2023-04-03T06:28:16;100906.34;;;1.34;75.06
77979;BME280;67169;50.268;8.694;2023-04-03T06:30:44;100904.75;;;1.42;75.09
77979;BME280;67169;50.268;8.694;2023-04-03T06:33:10;100906.47;;;1.40;74.68
77979;BME280;67169;50.268;8.694;2023-04-03T06:35:37;100916.34;;;1.49;74.68
77979;BME280;67169;50.268;8.694;2023-04-03T06:38:04;100908.41;;;1.49;74.56
77979;BME280;67169;50.268;8.694;2023-04-03T06:40:35;100911.47;;;1.75;74.58
77979;BME280;67169;50.268;8.694;2023-04-03T06:43:02;100912.09;;;1.60;73.47
77979;BME280;67169;50.268;8.694;2023-04-03T06:45:29;100928.19;;;1.69;73.43
77979;BME280;67169;50.268;8.694;2023-04-03T06:47:55;100926.53;;;1.77;72.78
77979;BME280;67169;50.268;8.694;2023-04-03T06:50:22;100924.75;;;1.76;72.94
77979;BME280;67169;50.268;8.694;2023-04-03T06:52:49;100933.53;;;1.72;73.01
77979;BME280;67169;50.268;8.694;2023-04-03T06:55:16;100930.91;;;1.75;74.19
77979;BME280;67169;50.268;8.694;2023-04-03T06:57:44;100935.59;;;1.90;72.38
77979;BME280;67169;50.268;8.694;2023-04-03T07:00:11;100927.84;;;2.04;73.44
77979;BME280;67169;50.268;8.694;2023-04-03T07:02:38;100932.19;;;1.99;72.72
77979;BME280;67169;50.268;8.694;2023-04-03T07:05:06;100945.50;;;2.02;72.58
77979;BME280;67169;50.268;8.694;2023-04-03T07:07:32;100944.03;;;2.22;72.90
77979;BME280;67169;50.268;8.694;2023-04-03T07:09:59;100950.34;;;2.30;71.98
77979;BME280;67169;50.268;8.694;2023-04-03T07:12:26;100941.69;;;2.44;72.47
77979;BME280;67169;50.268;8.694;2023-04-03T07:14:54;100946.47;;;2.69;72.19
77979;BME280;67169;50.268;8.694;2023-04-03T07:17:21;100932.38;;;2.76;71.55
77979;BME280;67169;50.268;8.694;2023-04-03T07:19:47;100945.63;;;2.73;69.55
77979;BME280;67169;50.268;8.694;2023-04-03T07:22:14;100952.06;;;2.94;69.85
77979;BME280;67169;50.268;8.694;2023-04-03T07:24:41;100954.78;;;2.98;70.85
77979;BME280;67169;50.268;8.694;2023-04-03T07:27:07;100960.25;;;3.12;69.59
77979;BME280;67169;50.268;8.694;2023-04-03T07:29:34;100958.56;;;3.19;69.59
77979;BME280;67169;50.268;8.694;2023-04-03T07:32:03;100966.56;;;3.23;69.02
77979;BME280;67169;50.268;8.694;2023-04-03T07:34:29;100965.97;;;3.49;69.02
77979;BME280;67169;50.268;8.694;2023-04-03T07:36:56;100974.06;;;3.61;66.61
77979;BME280;67169;50.268;8.694;2023-04-03T07:39:23;100965.69;;;4.17;65.51
77979;BME280;67169;50.268;8.694;2023-04-03T07:41:49;100972.31;;;4.85;63.43
77979;BME280;67169;50.268;8.694;2023-04-03T07:44:16;100911.25;;;3.77;63.09
77979;BME280;67169;50.268;8.694;2023-04-03T07:46:43;100901.44;;;3.71;65.63
77979;BME280;67169;50.268;8.694;2023-04-03T07:49:11;100978.94;;;4.11;64.41
77979;BME280;67169;50.268;8.694;2023-04-03T07:51:37;100984.97;;;3.86;64.95
77979;BME280;67169;50.268;8.694;2023-04-03T07:54:05;100978.72;;;3.84;65.08
77979;BME280;67169;50.268;8.694;2023-04-03T07:56:31;100972.44;;;3.77;65.87
77979;BME280;67169;50.268;8.694;2023-04-03T07:58:58;100976.91;;;3.81;65.38
77979;BME280;67169;50.268;8.694;2023-04-03T08:01:25;100985.00;;;3.95;64.67
77979;BME280;67169;50.268;8.694;2023-04-03T08:03:51;100976.22;;;4.05;65.47
77979;BME280;67169;50.268;8.694;2023-04-03T08:06:19;100973.72;;;4.26;64.29
77979;BME280;67169;50.268;8.694;2023-04-03T08:08:46;100974.63;;;4.27;64.35
77979;BME280;67169;50.268;8.694;2023-04-03T08:11:13;100974.56;;;4.22;65.16
77979;BME280;67169;50.268;8.694;2023-04-03T08:13:39;100976.59;;;4.60;63.78
77979;BME280;67169;50.268;8.694;2023-04-03T08:16:08;100974.13;;;4.98;62.52
77979;BME280;67169;50.268;8.694;2023-04-03T08:18:35;100973.19;;;4.83;61.66
77979;BME280;67169;50.268;8.694;2023-04-03T08:21:05;100970.59;;;5.03;61.86
77979;BME280;67169;50.268;8.694;2023-04-03T08:23:33;100975.94;;;5.12;61.48
77979;BME280;67169;50.268;8.694;2023-04-03T08:26:04;100978.59;;;5.03;61.98
77979;BME280;67169;50.268;8.694;2023-04-03T08:28:31;100965.31;;;5.21;61.29
77979;BME280;67169;50.268;8.694;2023-04-03T08:31:02;100968.94;;;5.34;59.88
77979;BME280;67169;50.268;8.694;2023-04-03T08:33:29;100923.47;;;5.00;60.18
77979;BME280;67169;50.268;8.694;2023-04-03T08:35:56;100962.63;;;5.19;59.12
77979;BME280;67169;50.268;8.694;2023-04-03T08:38:22;100973.34;;;5.29;60.33
77979;BME280;67169;50.268;8.694;2023-04-03T08:41:02;100972.50;;;5.42;58.73
77979;BME280;67169;50.268;8.694;2023-04-03T08:43:37;100972.50;;;5.50;58.28
77979;BME280;67169;50.268;8.694;2023-04-03T08:46:11;100976.09;;;5.78;59.27
77979;BME280;67169;50.268;8.694;2023-04-03T08:48:42;100930.72;;;5.56;58.66
77979;BME280;67169;50.268;8.694;2023-04-03T08:51:13;100983.22;;;5.88;57.42
77979;BME280;67169;50.268;8.694;2023-04-03T08:53:44;100974.31;;;5.67;58.83
77979;BME280;67169;50.268;8.694;2023-04-03T08:56:18;100978.78;;;5.90;57.83
77979;BME280;67169;50.268;8.694;2023-04-03T08:58:48;100989.44;;;5.67;57.68
77979;BME280;67169;50.268;8.694;2023-04-03T09:01:20;100973.47;;;6.22;56.00
77979;BME280;67169;50.268;8.694;2023-04-03T09:03:47;100975.25;;;5.94;57.42
77979;BME280;67169;50.268;8.694;2023-04-03T09:06:16;100978.81;;;5.94;57.83
77979;BME280;67169;50.268;8.694;2023-04-03T09:08:47;100974.38;;;6.30;57.01
77979;BME280;67169;50.268;8.694;2023-04-03T09:11:21;100977.00;;;5.87;57.38
77979;BME280;67169;50.268;8.694;2023-04-03T09:13:54;100977.91;;;6.31;58.46
77979;BME280;67169;50.268;8.694;2023-04-03T09:16:34;100983.25;;;6.05;57.52
77979;BME280;67169;50.268;8.694;2023-04-03T09:19:10;100978.81;;;6.08;55.99
77979;BME280;67169;50.268;8.694;2023-04-03T09:21:41;100985.91;;;6.46;56.02
77979;BME280;67169;50.268;8.694;2023-04-03T09:24:10;100983.28;;;6.11;56.84
77979;BME280;67169;50.268;8.694;2023-04-03T09:26:44;100978.72;;;5.38;55.92
77979;BME280;67169;50.268;8.694;2023-04-03T09:29:16;100987.69;;;5.89;56.73
77979;BME280;67169;50.268;8.694;2023-04-03T09:31:48;100977.03;;;5.98;57.98
77979;BME280;67169;50.268;8.694;2023-04-03T09:34:19;100969.88;;;6.46;57.57
77979;BME280;67169;50.268;8.694;2023-04-03T09:36:49;100948.53;;;5.82;54.00
77979;BME280;67169;50.268;8.694;2023-04-03T09:39:19;100973.47;;;6.30;54.75
77979;BME280;67169;50.268;8.694;2023-04-03T09:42:03;100976.09;;;5.87;52.69
77979;BME280;67169;50.268;8.694;2023-04-03T09:44:31;100982.31;;;5.51;54.18
77979;BME280;67169;50.268;8.694;2023-04-03T09:46:59;100975.06;;;5.11;54.50
77979;BME280;67169;50.268;8.694;2023-04-03T09:49:26;100982.34;;;5.78;56.58
77979;BME280;67169;50.268;8.694;2023-04-03T09:51:52;100977.91;;;6.51;54.21
77979;BME280;67169;50.268;8.694;2023-04-03T09:54:32;100973.34;;;6.77;51.02
77979;BME280;67169;50.268;8.694;2023-04-03T09:57:06;100975.91;;;7.05;52.02
77979;BME280;67169;50.268;8.694;2023-04-03T09:59:33;100971.19;;;7.56;51.38
77979;BME280;67169;50.268;8.694;2023-04-03T10:02:02;100969.53;;;7.38;49.54
77979;BME280;67169;50.268;8.694;2023-04-03T10:04:38;100971.19;;;7.59;49.53
77979;BME280;67169;50.268;8.694;2023-04-03T10:07:29;100976.38;;;7.80;51.63
77979;BME280;67169;50.268;8.694;2023-04-03T10:09:57;100977.56;;;7.38;48.84
77979;BME280;67169;50.268;8.694;2023-04-03T10:12:25;100962.41;;;7.37;48.94
77979;BME280;67169;50.268;8.694;2023-04-03T10:14:55;100965.72;;;7.76;48.75
77979;BME280;67169;50.268;8.694;2023-04-03T10:17:31;100968.06;;;8.14;49.74
77979;BME280;67169;50.268;8.694;2023-04-03T10:20:07;100951.50;;;7.68;49.21
77979;BME280;67169;50.268;8.694;2023-04-03T10:22:46;100945.97;;;7.89;47.58
77979;BME280;67169;50.268;8.694;2023-04-03T10:25:21;100951.22;;;8.01;46.85
77979;BME280;67169;50.268;8.694;2023-04-03T10:27:55;100953.13;;;7.87;47.32
77979;BME280;67169;50.268;8.694;2023-04-03T10:30:39;100946.81;;;7.91;47.36
77979;BME280;67169;50.268;8.694;2023-04-03T10:33:20;100949.19;;;8.28;45.13
77979;BME280;67169;50.268;8.694;2023-04-03T10:36:02;100930.16;;;8.57;44.18
77979;BME280;67169;50.268;8.694;2023-04-03T10:38:43;100949.09;;;8.43;43.46
77979;BME280;67169;50.268;8.694;2023-04-03T10:41:17;100949.06;;;8.45;46.15
77979;BME280;67169;50.268;8.694;2023-04-03T10:43:55;100947.22;;;8.48;43.38
77979;BME280;67169;50.268;8.694;2023-04-03T10:46:28;100946.88;;;8.79;44.44
77979;BME280;67169;50.268;8.694;2023-04-03T10:49:08;100959.94;;;9.10;43.71
77979;BME280;67169;50.268;8.694;2023-04-03T10:51:41;100946.88;;;8.79;41.12
77979;BME280;67169;50.268;8.694;2023-04-03T10:54:11;100912.72;;;8.13;43.50
77979;BME280;67169;50.268;8.694;2023-04-03T10:56:40;100935.69;;;8.42;43.98
77979;BME280;67169;50.268;8.694;2023-04-03T10:59:16;100932.16;;;8.32;42.70
77979;BME280;67169;50.268;8.694;2023-04-03T11:01:47;100931.72;;;8.76;42.09
77979;BME280;67169;50.268;8.694;2023-04-03T11:04:16;100933.91;;;8.41;43.50
77979;BME280;67169;50.268;8.694;2023-04-03T11:06:47;100929.94;;;8.75;41.43
77979;BME280;67169;50.268;8.694;2023-04-03T11:09:21;100925.34;;;8.88;42.77
77979;BME280;67169;50.268;8.694;2023-04-03T11:11:51;100923.28;;;9.09;42.11
77979;BME280;67169;50.268;8.694;2023-04-03T11:14:26;100921.38;;;9.17;40.77
77979;BME280;67169;50.268;8.694;2023-04-03T11:17:09;100915.56;;;9.46;41.17
77979;BME280;67169;50.268;8.694;2023-04-03T11:19:41;100928.19;;;9.41;41.15
77979;BME280;67169;50.268;8.694;2023-04-03T11:22:16;100914.34;;;9.67;41.38
77979;BME280;67169;50.268;8.694;2023-04-03T11:24:54;100911.63;;;10.22;43.23
77979;BME280;67169;50.268;8.694;2023-04-03T11:27:24;100915.81;;;9.86;40.27
77979;BME280;67169;50.268;8.694;2023-04-03T11:29:54;100909.34;;;9.99;39.25
77979;BME280;67169;50.268;8.694;2023-04-03T11:32:34;100907.75;;;9.86;40.52
77979;BME280;67169;50.268;8.694;2023-04-03T11:35:07;100915.53;;;10.03;41.18
77979;BME280;67169;50.268;8.694;2023-04-03T11:37:38;100912.28;;;10.35;38.52
77979;BME280;67169;50.268;8.694;2023-04-03T11:40:08;100903.06;;;9.99;38.97
77979;BME280;67169;50.268;8.694;2023-04-03T11:42:48;100900.94;;;9.65;39.38
77979;BME280;67169;50.268;8.694;2023-04-03T11:45:25;100841.50;;;9.31;39.39
77979;BME280;67169;50.268;8.694;2023-04-03T11:47:53;100898.38;;;10.12;40.38
77979;BME280;67169;50.268;8.694;2023-04-03T11:50:31;100896.91;;;9.92;39.98
77979;BME280;67169;50.268;8.694;2023-04-03T11:53:11;100891.06;;;10.20;38.90
77979;BME280;67169;50.268;8.694;2023-04-03T11:55:54;100890.56;;;10.48;39.91
77979;BME280;67169;50.268;8.694;2023-04-03T11:58:22;100884.53;;;10.35;39.51
77979;BME280;67169;50.268;8.694;2023-04-03T12:00:56;100896.78;;;10.02;40.18
77979;BME280;67169;50.268;8.694;2023-04-03T12:03:31;100881.75;;;10.39;38.58
77979;BME280;67169;50.268;8.694;2023-04-03T12:09:26;100882.31;;;9.55;41.31
77979;BME280;67169;50.268;8.694;2023-04-03T12:11:55;100866.13;;;10.12;39.26
77979;BME280;67169;50.268;8.694;2023-04-03T12:14:23;100879.19;;;9.82;38.77
77979;BME280;67169;50.268;8.694;2023-04-03T12:16:54;100862.34;;;10.22;39.21
77979;BME280;67169;50.268;8.694;2023-04-03T12:19:32;100865.78;;;10.75;39.09
77979;BME280;67169;50.268;8.694;2023-04-03T12:22:08;100870.97;;;10.84;37.42
77979;BME280;67169;50.268;8.694;2023-04-03T12:24:36;100867.13;;;10.96;38.26
77979;BME280;67169;50.268;8.694;2023-04-03T12:27:24;100872.22;;;10.68;36.27
77979;BME280;67169;50.268;8.694;2023-04-03T12:29:56;100867.25;;;11.30;40.14
77979;BME280;67169;50.268;8.694;2023-04-03T12:32:36;100857.63;;;11.57;37.18
77979;BME280;67169;50.268;8.694;2023-04-03T12:35:15;100848.59;;;12.28;36.25
77979;BME280;67169;50.268;8.694;2023-04-03T12:38:17;100859.34;;;11.60;38.29
77979;BME280;67169;50.268;8.694;2023-04-03T12:40:50;100853.00;;;12.31;37.08
77979;BME280;67169;50.268;8.694;2023-04-03T12:43:34;100849.94;;;12.45;36.44
77979;BME280;67169;50.268;8.694;2023-04-03T12:46:07;100856.94;;;11.83;35.99
77979;BME280;67169;50.268;8.694;2023-04-03T12:48:47;100849.22;;;10.52;38.99
77979;BME280;67169;50.268;8.694;2023-04-03T12:51:18;100855.63;;;10.46;39.31
77979;BME280;67169;50.268;8.694;2023-04-03T12:53:46;100847.66;;;11.59;36.69
77979;BME280;67169;50.268;8.694;2023-04-03T12:56:22;100835.94;;;11.26;34.51
77979;BME280;67169;50.268;8.694;2023-04-03T12:58:51;100830.53;;;11.62;34.49
77979;BME280;67169;50.268;8.694;2023-04-03T13:01:21;100828.38;;;12.12;36.13
77979;BME280;67169;50.268;8.694;2023-04-03T13:03:52;100837.25;;;11.81;34.51
77979;BME280;67169;50.268;8.694;2023-04-03T13:06:21;100826.84;;;12.34;32.10
77979;BME280;67169;50.268;8.694;2023-04-03T13:08:50;100821.47;;;12.02;34.02
77979;BME280;67169;50.268;8.694;2023-04-03T13:11:16;100820.84;;;11.19;32.64
77979;BME280;67169;50.268;8.694;2023-04-03T13:13:54;100823.69;;;11.49;35.36
77979;BME280;67169;50.268;8.694;2023-04-03T13:16:21;100819.53;;;11.71;32.50